createdAt,value
2023-04-06T00:01:51.177Z,6.27
2023-04-06T00:04:18.578Z,6.32
2023-04-06T00:06:45.946Z,6.29
2023-04-06T00:09:13.310Z,6.35
2023-04-06T00:11:40.840Z,6.20
2023-04-06T00:14:08.238Z,6.11
2023-04-06T00:16:35.810Z,6.10
2023-04-06T00:19:03.317Z,6.24
2023-04-06T00:21:32.186Z,6.21
2023-04-06T00:23:59.687Z,6.32
2023-04-06T00:26:27.125Z,6.36
2023-04-06T00:28:56.334Z,6.31
2023-04-06T00:31:24.619Z,6.27
2023-04-06T00:33:52.392Z,6.25
2023-04-06T00:36:19.963Z,6.07
2023-04-06T00:38:47.485Z,6.08
2023-04-06T00:41:15.034Z,6.02
2023-04-06T00:43:42.522Z,5.95
2023-04-06T00:46:09.984Z,6.02
2023-04-06T00:48:37.436Z,6.14
2023-04-06T00:51:04.977Z,6.19
2023-04-06T00:53:32.368Z,6.28
2023-04-06T00:56:01.598Z,6.13
2023-04-06T00:58:33.183Z,6.12
2023-04-06T01:01:07.224Z,5.99
2023-04-06T01:03:36.124Z,5.99
2023-04-06T01:06:03.858Z,5.80
2023-04-06T01:08:37.774Z,5.88
2023-04-06T01:11:19.408Z,5.96
2023-04-06T01:13:48.379Z,6.03
2023-04-06T01:16:25.360Z,6.13
2023-04-06T01:19:11.002Z,5.95
2023-04-06T01:21:41.860Z,6.01
2023-04-06T01:24:19.728Z,5.90
2023-04-06T01:27:05.812Z,5.78
2023-04-06T01:29:56.733Z,5.89
2023-04-06T01:32:53.500Z,6.02
2023-04-06T01:35:44.049Z,6.00
2023-04-06T01:38:15.670Z,5.94
2023-04-06T01:40:43.287Z,6.10
2023-04-06T01:43:11.293Z,6.12
2023-04-06T01:46:07.887Z,6.15
2023-04-06T01:48:38.242Z,6.09
2023-04-06T01:51:34.819Z,6.20
2023-04-06T01:54:04.918Z,6.08
2023-04-06T01:56:54.752Z,6.10
2023-04-06T01:59:31.447Z,5.97
2023-04-06T02:02:01.035Z,6.00
2023-04-06T02:04:29.606Z,5.98
2023-04-06T02:07:06.930Z,6.01
2023-04-06T02:09:34.349Z,5.98
2023-04-06T02:12:02.468Z,5.93
2023-04-06T02:14:32.378Z,5.95
2023-04-06T02:17:01.455Z,5.79
2023-04-06T02:19:29.006Z,5.82
2023-04-06T02:21:56.676Z,5.94
2023-04-06T02:24:24.038Z,5.99
2023-04-06T02:26:51.418Z,5.69
2023-04-06T02:29:18.796Z,5.59
2023-04-06T02:31:46.217Z,5.61
2023-04-06T02:34:18.425Z,5.63
2023-04-06T02:36:49.286Z,5.54
2023-04-06T02:39:16.816Z,5.61
2023-04-06T02:41:56.498Z,5.55
2023-04-06T02:44:26.662Z,5.57
2023-04-06T02:46:54.103Z,5.50
2023-04-06T02:49:23.655Z,5.48
2023-04-06T02:51:54.730Z,5.60
2023-04-06T02:54:29.343Z,5.51
2023-04-06T02:56:56.787Z,5.50
2023-04-06T02:59:30.827Z,5.67
2023-04-06T03:02:08.741Z,5.69
2023-04-06T03:04:36.934Z,5.70
2023-04-06T03:07:07.253Z,5.49
2023-04-06T03:09:39.335Z,5.50
2023-04-06T03:12:09.695Z,5.56
2023-04-06T03:14:50.753Z,5.53
2023-04-06T03:17:18.278Z,5.60
2023-04-06T03:19:46.360Z,5.58
2023-04-06T03:22:14.732Z,5.57
2023-04-06T03:24:42.516Z,5.43
2023-04-06T03:27:10.568Z,5.23
2023-04-06T03:29:38.301Z,5.29
2023-04-06T03:32:09.193Z,5.17
2023-04-06T03:34:40.759Z,5.23
2023-04-06T03:37:10.759Z,5.33
2023-04-06T03:39:44.916Z,5.29
2023-04-06T03:42:17.929Z,5.29
2023-04-06T03:44:54.922Z,5.23
2023-04-06T03:47:22.532Z,4.93
2023-04-06T03:49:50.501Z,5.14
2023-04-06T03:52:17.955Z,5.20
2023-04-06T03:54:45.568Z,5.37
2023-04-06T03:57:13.116Z,5.34
2023-04-06T03:59:40.587Z,5.30
2023-04-06T04:02:08.094Z,5.15
2023-04-06T04:04:35.773Z,5.11
2023-04-06T04:07:03.238Z,5.07
2023-04-06T04:09:31.058Z,5.04
2023-04-06T04:11:58.516Z,4.79
2023-04-06T04:14:26.689Z,4.87
2023-04-06T04:16:54.245Z,4.73
2023-04-06T04:19:21.842Z,4.75
2023-04-06T04:21:49.487Z,4.76
2023-04-06T04:24:21.488Z,4.71
2023-04-06T04:26:48.913Z,4.73
2023-04-06T04:29:17.718Z,4.81
2023-04-06T04:31:45.630Z,4.84
2023-04-06T04:34:17.903Z,4.73
2023-04-06T04:36:45.452Z,4.68
2023-04-06T04:39:19.454Z,4.58
2023-04-06T04:41:51.706Z,4.77
2023-04-06T04:44:19.173Z,4.83
2023-04-06T04:46:46.693Z,4.86
2023-04-06T04:49:16.146Z,4.83
2023-04-06T04:51:44.242Z,4.66
2023-04-06T04:54:22.839Z,4.60
2023-04-06T04:56:51.237Z,4.85
2023-04-06T04:59:25.018Z,4.82
2023-04-06T05:01:59.347Z,4.89
2023-04-06T05:04:36.813Z,5.09
2023-04-06T05:07:08.626Z,5.07
2023-04-06T05:09:37.970Z,4.98
2023-04-06T05:12:06.455Z,4.68
2023-04-06T05:14:39.097Z,4.64
2023-04-06T05:17:12.884Z,5.00
2023-04-06T05:19:40.480Z,4.89
2023-04-06T05:22:08.629Z,5.03
2023-04-06T05:24:38.364Z,5.02
2023-04-06T05:27:07.923Z,5.04
2023-04-06T05:29:35.530Z,5.08
2023-04-06T05:32:03.698Z,5.17
2023-04-06T05:34:32.085Z,5.30
2023-04-06T05:37:03.976Z,5.32
2023-04-06T05:39:31.515Z,5.26
2023-04-06T05:42:04.938Z,5.36
2023-04-06T05:44:43.173Z,5.27
2023-04-06T05:47:14.483Z,5.26
2023-04-06T05:49:43.662Z,5.27
2023-04-06T05:52:16.976Z,5.23
2023-04-06T05:54:47.572Z,5.37
2023-04-06T05:57:15.370Z,5.54
2023-04-06T05:59:42.915Z,5.80
2023-04-06T06:02:12.368Z,5.81
2023-04-06T06:04:44.029Z,5.79
2023-04-06T06:07:11.646Z,6.04
2023-04-06T06:09:46.200Z,6.15
2023-04-06T06:12:24.458Z,6.21
2023-04-06T06:14:51.943Z,6.29
2023-04-06T06:17:23.925Z,6.22
2023-04-06T06:19:55.887Z,6.20
2023-04-06T06:22:23.582Z,6.34
2023-04-06T06:24:57.856Z,6.50
2023-04-06T06:27:25.782Z,6.74
2023-04-06T06:29:53.706Z,6.93
2023-04-06T06:32:21.596Z,7.13
2023-04-06T06:34:55.805Z,7.22
2023-04-06T06:37:23.338Z,7.59
2023-04-06T06:39:51.200Z,7.82
2023-04-06T06:42:20.643Z,7.93
2023-04-06T06:45:08.058Z,7.99
2023-04-06T06:47:35.663Z,8.16
2023-04-06T06:50:04.265Z,8.30
2023-04-06T06:52:32.391Z,8.38
2023-04-06T06:55:01.274Z,8.47
2023-04-06T06:57:28.811Z,8.67
2023-04-06T06:59:56.954Z,9.00
2023-04-06T07:02:26.348Z,9.13
2023-04-06T07:04:53.889Z,9.22
2023-04-06T07:07:21.355Z,8.97
2023-04-06T07:09:55.113Z,9.27
2023-04-06T07:12:22.544Z,9.13
2023-04-06T07:14:51.058Z,9.07
2023-04-06T07:17:19.636Z,8.93
2023-04-06T07:19:47.225Z,9.17
2023-04-06T07:22:23.511Z,9.45
2023-04-06T07:24:51.267Z,9.75
2023-04-06T07:27:19.803Z,10.07
2023-04-06T07:29:53.234Z,10.44
2023-04-06T07:32:29.400Z,10.50
2023-04-06T07:34:57.318Z,10.28
2023-04-06T07:37:24.688Z,10.41
2023-04-06T07:39:52.101Z,10.43
2023-04-06T07:42:19.919Z,10.24
2023-04-06T07:44:47.386Z,10.07
2023-04-06T07:47:15.015Z,10.32
2023-04-06T07:49:42.921Z,11.27
2023-04-06T07:52:11.651Z,11.74
2023-04-06T07:54:46.842Z,12.53
2023-04-06T07:57:18.022Z,12.35
2023-04-06T07:59:45.509Z,11.98
2023-04-06T08:02:12.982Z,11.66
2023-04-06T08:04:44.012Z,11.87
2023-04-06T08:07:13.514Z,13.08
2023-04-06T08:09:44.094Z,13.71
2023-04-06T08:12:11.589Z,14.67
2023-04-06T08:14:39.140Z,14.59
2023-04-06T08:17:06.717Z,15.21
2023-04-06T08:19:34.259Z,15.15
2023-04-06T08:22:01.950Z,15.34
2023-04-06T08:24:29.579Z,15.78
2023-04-06T08:26:58.167Z,15.36
2023-04-06T08:29:25.570Z,14.77
2023-04-06T08:31:53.529Z,14.24
2023-04-06T08:34:22.374Z,13.51
2023-04-06T08:36:51.332Z,13.14
2023-04-06T08:39:25.004Z,12.88
2023-04-06T08:41:53.775Z,12.73
2023-04-06T08:44:21.552Z,12.72
2023-04-06T08:46:49.302Z,12.69
2023-04-06T08:49:17.390Z,12.45
2023-04-06T08:51:44.857Z,11.64
2023-04-06T08:54:12.402Z,11.82
2023-04-06T08:56:41.415Z,12.50
2023-04-06T08:59:10.355Z,12.47
2023-04-06T09:01:46.912Z,13.12
2023-04-06T09:04:24.393Z,13.61
2023-04-06T09:06:53.432Z,12.89
2023-04-06T09:09:24.116Z,13.11
2023-04-06T09:11:53.331Z,14.27
2023-04-06T09:14:40.486Z,14.96
2023-04-06T09:17:08.014Z,15.57
2023-04-06T09:19:46.437Z,15.98
2023-04-06T09:22:15.818Z,15.30
2023-04-06T09:24:45.577Z,14.72
2023-04-06T09:27:13.915Z,14.22
2023-04-06T09:29:43.088Z,13.57
2023-04-06T09:32:12.232Z,13.42
2023-04-06T09:34:40.195Z,13.01
2023-04-06T09:37:17.881Z,13.22
2023-04-06T09:39:46.421Z,13.10
2023-04-06T09:42:35.256Z,13.11
2023-04-06T09:45:03.925Z,13.45
2023-04-06T09:47:33.893Z,13.19
2023-04-06T09:50:03.961Z,13.48
2023-04-06T09:52:44.975Z,13.23
2023-04-06T09:55:38.277Z,13.29
2023-04-06T09:58:08.288Z,13.02
2023-04-06T10:00:49.915Z,13.18
2023-04-06T10:03:53.369Z,13.35
2023-04-06T10:06:24.580Z,13.47
2023-04-06T10:08:55.538Z,13.43
2023-04-06T10:11:23.913Z,13.22
2023-04-06T10:13:59.947Z,13.33
2023-04-06T10:16:29.198Z,13.20
2023-04-06T10:19:11.459Z,13.11
2023-04-06T10:21:41.295Z,13.23
2023-04-06T10:24:11.964Z,13.00
2023-04-06T10:26:39.569Z,13.25
2023-04-06T10:29:10.984Z,13.32
2023-04-06T10:31:45.286Z,13.31
2023-04-06T10:34:13.513Z,13.21
2023-04-06T10:36:41.043Z,13.21
2023-04-06T10:39:08.515Z,13.34
2023-04-06T10:41:44.371Z,13.12
2023-04-06T10:44:29.852Z,13.35
2023-04-06T10:47:01.384Z,13.34
2023-04-06T10:49:29.025Z,13.34
2023-04-06T10:51:57.449Z,13.48
2023-04-06T10:54:27.951Z,13.35
2023-04-06T10:56:57.141Z,13.45
2023-04-06T10:59:26.324Z,13.77
2023-04-06T11:01:56.137Z,13.50
2023-04-06T11:04:24.538Z,13.33
2023-04-06T11:06:53.173Z,13.51
2023-04-06T11:09:29.438Z,13.55
2023-04-06T11:11:57.992Z,13.52
2023-04-06T11:14:27.553Z,13.60
2023-04-06T11:16:59.101Z,13.65
2023-04-06T11:19:27.194Z,13.63
2023-04-06T11:21:54.783Z,13.63
2023-04-06T11:24:25.495Z,13.85
2023-04-06T11:26:56.705Z,13.81
2023-04-06T11:29:28.767Z,13.64
2023-04-06T11:32:03.931Z,13.68
2023-04-06T11:34:37.966Z,13.62
2023-04-06T11:37:09.700Z,13.61
2023-04-06T11:39:44.171Z,13.64
2023-04-06T11:42:11.733Z,13.92
2023-04-06T11:44:41.078Z,13.84
2023-04-06T11:47:11.399Z,14.00
2023-04-06T11:49:41.150Z,13.94
2023-04-06T11:52:35.174Z,13.93
2023-04-06T11:55:15.895Z,14.04
2023-04-06T11:57:53.134Z,14.07
2023-04-06T12:00:24.330Z,14.06
2023-04-06T12:02:52.540Z,13.92
2023-04-06T12:05:20.139Z,13.98
2023-04-06T12:07:47.731Z,13.95
2023-04-06T12:10:15.203Z,14.10
2023-04-06T12:12:42.654Z,14.21
2023-04-06T12:15:10.729Z,14.14
2023-04-06T12:17:38.483Z,14.27
2023-04-06T12:20:18.088Z,14.25
2023-04-06T12:22:53.143Z,14.10
2023-04-06T12:25:20.810Z,14.13
2023-04-06T12:27:48.432Z,14.12
2023-04-06T12:30:16.447Z,14.17
2023-04-06T12:32:44.374Z,14.08
2023-04-06T12:35:16.694Z,14.25
2023-04-06T12:37:44.411Z,14.30
2023-04-06T12:40:12.857Z,14.21
2023-04-06T12:42:43.379Z,14.26
2023-04-06T12:45:11.339Z,14.57
2023-04-06T12:47:39.400Z,14.54
2023-04-06T12:50:07.514Z,14.17
2023-04-06T12:52:36.621Z,14.36
2023-04-06T12:55:06.031Z,14.25
2023-04-06T12:57:33.541Z,14.25
2023-04-06T13:00:02.022Z,14.15
2023-04-06T13:02:30.980Z,14.17
2023-04-06T13:04:59.438Z,14.10
2023-04-06T13:07:27.284Z,14.14
2023-04-06T13:09:55.193Z,14.25
2023-04-06T13:12:22.819Z,14.33
2023-04-06T13:14:53.437Z,14.52
2023-04-06T13:17:22.193Z,14.58
2023-04-06T13:19:49.698Z,14.15
2023-04-06T13:22:17.218Z,14.19
2023-04-06T13:24:44.841Z,14.50
2023-04-06T13:27:12.817Z,14.45
2023-04-06T13:29:40.533Z,14.44
2023-04-06T13:32:08.785Z,14.20
2023-04-06T13:34:36.737Z,14.39
2023-04-06T13:37:04.303Z,14.27
2023-04-06T13:39:32.780Z,14.42
2023-04-06T13:42:01.613Z,14.48
2023-04-06T13:44:33.326Z,14.39
2023-04-06T13:47:00.744Z,14.40
2023-04-06T13:49:37.755Z,14.34
2023-04-06T13:52:05.423Z,14.49
2023-04-06T13:54:32.797Z,14.73
2023-04-06T13:57:01.914Z,14.70
2023-04-06T13:59:36.866Z,14.58
2023-04-06T14:02:05.296Z,14.49
2023-04-06T14:04:33.194Z,14.33
2023-04-06T14:07:01.708Z,14.36
2023-04-06T14:09:29.793Z,14.63
2023-04-06T14:11:57.398Z,14.52
2023-04-06T14:14:24.840Z,14.49
2023-04-06T14:16:52.649Z,14.41
2023-04-06T14:19:20.016Z,14.65
2023-04-06T14:21:48.202Z,14.76
2023-04-06T14:24:17.078Z,14.74
2023-04-06T14:26:45.273Z,14.49
2023-04-06T14:29:12.604Z,14.37
2023-04-06T14:31:40.019Z,14.51
2023-04-06T14:34:07.421Z,14.67
2023-04-06T14:36:38.964Z,14.62
2023-04-06T14:39:06.924Z,14.60
2023-04-06T14:41:39.458Z,14.58
2023-04-06T14:44:07.470Z,14.66
2023-04-06T14:46:34.994Z,14.71
2023-04-06T14:49:06.985Z,14.72
2023-04-06T14:51:35.776Z,14.81
2023-04-06T14:54:06.290Z,14.79
2023-04-06T14:56:33.829Z,14.71
2023-04-06T14:59:08.811Z,14.74
2023-04-06T15:01:37.132Z,14.80
2023-04-06T15:04:05.872Z,14.95
2023-04-06T15:06:33.632Z,14.80
2023-04-06T15:09:01.823Z,14.65
2023-04-06T15:11:29.289Z,14.78
2023-04-06T15:13:56.750Z,14.79
2023-04-06T15:16:24.204Z,14.95
2023-04-06T15:18:51.544Z,14.91
2023-04-06T15:21:21.191Z,14.83
2023-04-06T15:23:48.698Z,14.60
2023-04-06T15:26:21.454Z,14.58
2023-04-06T15:28:49.019Z,14.57
2023-04-06T15:31:36.758Z,14.78
2023-04-06T15:34:09.159Z,14.65
2023-04-06T15:36:37.091Z,14.71
2023-04-06T15:39:07.145Z,14.79
2023-04-06T15:41:34.582Z,14.74
2023-04-06T15:44:02.080Z,14.76
2023-04-06T15:46:33.989Z,14.67
2023-04-06T15:49:01.482Z,14.51
2023-04-06T15:51:30.269Z,14.28
2023-04-06T15:53:58.694Z,14.31
2023-04-06T15:56:26.507Z,14.29
2023-04-06T15:58:53.906Z,14.32
2023-04-06T16:01:21.419Z,14.33
2023-04-06T16:03:49.022Z,14.51
2023-04-06T16:06:16.571Z,14.47
2023-04-06T16:08:43.935Z,14.47
2023-04-06T16:11:11.867Z,14.39
2023-04-06T16:13:40.445Z,14.40
2023-04-06T16:16:09.594Z,14.38
2023-04-06T16:18:37.463Z,14.42
2023-04-06T16:21:05.601Z,14.42
2023-04-06T16:23:33.715Z,14.36
2023-04-06T16:26:11.693Z,14.42
2023-04-06T16:28:39.128Z,14.38
2023-04-06T16:31:06.852Z,14.34
2023-04-06T16:33:34.396Z,14.27
2023-04-06T16:36:02.427Z,14.18
2023-04-06T16:38:35.592Z,14.12
2023-04-06T16:41:03.446Z,14.32
2023-04-06T16:43:32.297Z,14.05
2023-04-06T16:45:59.745Z,14.16
2023-04-06T16:48:27.323Z,14.26
2023-04-06T16:50:55.595Z,14.20
2023-04-06T16:53:22.944Z,14.16
2023-04-06T16:55:50.370Z,14.20
2023-04-06T16:58:17.764Z,13.95
2023-04-06T17:00:45.578Z,13.90
2023-04-06T17:03:13.308Z,13.89
2023-04-06T17:05:40.819Z,13.82
2023-04-06T17:08:08.428Z,13.77
2023-04-06T17:10:41.804Z,13.86
2023-04-06T17:13:19.138Z,13.78
2023-04-06T17:15:46.552Z,13.81
2023-04-06T17:18:13.952Z,13.75
2023-04-06T17:20:41.387Z,13.62
2023-04-06T17:23:09.059Z,13.48
2023-04-06T17:25:36.407Z,13.43
2023-04-06T17:28:03.985Z,13.35
2023-04-06T17:30:35.422Z,13.28
2023-04-06T17:33:02.980Z,13.17
2023-04-06T17:35:30.566Z,13.14
2023-04-06T17:37:58.097Z,13.07
2023-04-06T17:40:25.415Z,12.99
2023-04-06T17:42:53.280Z,13.01
2023-04-06T17:45:20.965Z,13.01
2023-04-06T17:47:48.350Z,13.02
2023-04-06T17:50:15.691Z,12.88
2023-04-06T17:55:10.671Z,12.81
2023-04-06T17:57:41.040Z,12.72
2023-04-06T18:00:11.975Z,12.60
2023-04-06T18:02:39.386Z,12.54
2023-04-06T18:05:06.998Z,12.52
2023-04-06T18:07:34.351Z,12.55
2023-04-06T18:10:02.011Z,12.51
2023-04-06T18:12:29.379Z,12.53
2023-04-06T18:14:56.750Z,12.59
2023-04-06T18:17:24.086Z,12.57
2023-04-06T18:19:51.452Z,12.54
2023-04-06T18:22:19.659Z,12.56
2023-04-06T18:24:47.122Z,12.45
2023-04-06T18:27:14.843Z,12.45
2023-04-06T18:29:45.261Z,12.45
2023-04-06T18:32:14.966Z,12.40
2023-04-06T18:34:42.534Z,12.40
2023-04-06T18:37:10.155Z,12.37
2023-04-06T18:39:37.575Z,12.46
2023-04-06T18:42:05.051Z,12.42
2023-04-06T18:44:32.424Z,12.43
2023-04-06T18:46:59.953Z,12.38
2023-04-06T18:49:27.377Z,12.37
2023-04-06T18:51:55.769Z,12.38
2023-04-06T18:54:23.157Z,12.30
2023-04-06T18:56:50.587Z,12.23
2023-04-06T18:59:19.207Z,12.20
2023-04-06T19:01:51.061Z,12.19
2023-04-06T19:04:18.702Z,12.16
2023-04-06T19:06:46.541Z,12.13
2023-04-06T19:09:13.838Z,12.13
2023-04-06T19:11:41.331Z,11.99
2023-04-06T19:14:08.644Z,11.94
2023-04-06T19:16:40.875Z,11.82
2023-04-06T19:19:08.431Z,11.66
2023-04-06T19:21:35.709Z,11.69
2023-04-06T19:24:03.186Z,11.65
2023-04-06T19:26:32.555Z,11.64
2023-04-06T19:28:59.873Z,11.62
2023-04-06T19:31:28.032Z,11.73
2023-04-06T19:33:55.817Z,11.85
2023-04-06T19:36:23.238Z,11.85
2023-04-06T19:38:50.640Z,11.80
2023-04-06T19:41:17.970Z,11.66
2023-04-06T19:43:46.490Z,11.69
2023-04-06T19:46:15.463Z,11.57
2023-04-06T19:48:43.261Z,11.56
2023-04-06T19:51:10.767Z,11.50
2023-04-06T19:53:38.397Z,11.43
2023-04-06T19:56:05.834Z,11.42
2023-04-06T19:58:33.314Z,11.59
2023-04-06T20:01:00.776Z,11.52
2023-04-06T20:03:28.574Z,11.42
2023-04-06T20:05:56.087Z,11.40
2023-04-06T20:08:23.452Z,11.32
2023-04-06T20:10:52.109Z,11.33
2023-04-06T20:13:20.953Z,11.26
2023-04-06T20:15:49.136Z,11.25
2023-04-06T20:18:16.544Z,11.36
2023-04-06T20:20:44.739Z,11.22
2023-04-06T20:23:12.761Z,11.16
2023-04-06T20:25:40.192Z,11.13
2023-04-06T20:28:08.567Z,11.28
2023-04-06T20:30:36.210Z,11.22
2023-04-06T20:33:03.829Z,11.27
2023-04-06T20:35:32.326Z,11.00
2023-04-06T20:37:59.693Z,11.08
2023-04-06T20:40:27.764Z,10.91
2023-04-06T20:42:55.992Z,10.93
2023-04-06T20:45:25.844Z,10.79
2023-04-06T20:47:53.893Z,10.99
2023-04-06T20:50:22.588Z,11.04
2023-04-06T20:52:49.923Z,10.91
2023-04-06T20:55:17.345Z,11.02
2023-04-06T20:57:45.987Z,10.88
2023-04-06T21:00:13.751Z,10.63
2023-04-06T21:02:41.437Z,10.69
2023-04-06T21:05:09.449Z,10.54
2023-04-06T21:07:38.069Z,10.76
2023-04-06T21:10:06.789Z,10.66
2023-04-06T21:12:34.171Z,10.76
2023-04-06T21:15:02.245Z,10.61
2023-04-06T21:17:29.549Z,10.53
2023-04-06T21:19:56.886Z,10.47
2023-04-06T21:22:24.245Z,10.66
2023-04-06T21:24:51.650Z,10.55
2023-04-06T21:27:18.995Z,10.51
2023-04-06T21:29:46.401Z,10.43
2023-04-06T21:32:13.902Z,10.25
2023-04-06T21:34:48.669Z,10.09
2023-04-06T21:37:17.710Z,10.07
2023-04-06T21:39:45.908Z,10.02
2023-04-06T21:42:13.321Z,10.21
2023-04-06T21:44:40.673Z,10.15
2023-04-06T21:47:08.075Z,10.17
2023-04-06T21:49:35.565Z,10.09
2023-04-06T21:52:03.184Z,10.04
2023-04-06T21:54:34.436Z,10.22
2023-04-06T21:57:01.924Z,10.16
2023-04-06T21:59:29.327Z,10.00
2023-04-06T22:01:57.203Z,9.96
2023-04-06T22:04:25.609Z,9.84
2023-04-06T22:06:53.107Z,9.97
2023-04-06T22:09:20.498Z,9.81
2023-04-06T22:11:47.948Z,9.81
2023-04-06T22:14:16.122Z,9.97
2023-04-06T22:16:43.961Z,9.92
2023-04-06T22:19:12.013Z,9.88
2023-04-06T22:21:39.552Z,9.78
2023-04-06T22:24:07.132Z,9.77
2023-04-06T22:26:34.556Z,9.58
2023-04-06T22:29:01.932Z,9.71
2023-04-06T22:31:29.236Z,9.81
2023-04-06T22:33:56.623Z,9.78
2023-04-06T22:36:24.590Z,9.72
2023-04-06T22:38:51.924Z,9.66
2023-04-06T22:41:19.259Z,9.55
2023-04-06T22:43:46.690Z,9.36
2023-04-06T22:46:13.993Z,9.21
2023-04-06T22:48:41.446Z,9.24
2023-04-06T22:51:08.786Z,9.25
2023-04-06T22:53:36.185Z,9.23
2023-04-06T22:56:03.504Z,9.24
2023-04-06T22:58:31.048Z,9.13
2023-04-06T23:00:58.378Z,9.33
2023-04-06T23:03:25.986Z,9.39
2023-04-06T23:05:53.298Z,9.08
2023-04-06T23:08:20.893Z,9.19
2023-04-06T23:10:49.832Z,9.20
2023-04-06T23:13:17.347Z,9.30
2023-04-06T23:15:44.624Z,9.33
2023-04-06T23:18:11.943Z,9.28
2023-04-06T23:20:39.947Z,9.44
2023-04-06T23:23:07.271Z,9.31
2023-04-06T23:25:34.548Z,9.23
2023-04-06T23:28:02.007Z,9.11
2023-04-06T23:30:29.406Z,9.09
2023-04-06T23:32:56.696Z,9.02
2023-04-06T23:35:24.031Z,8.97
2023-04-06T23:37:51.438Z,8.93
2023-04-06T23:40:18.773Z,8.93
2023-04-06T23:42:46.294Z,8.80
2023-04-06T23:45:13.622Z,8.75
2023-04-06T23:47:41.040Z,8.65
2023-04-06T23:50:08.737Z,8.74
2023-04-06T23:52:36.168Z,8.44
2023-04-06T23:55:03.799Z,8.52
2023-04-06T23:57:31.178Z,8.54
